sensor_id;sensor_type;location;lat;lon;timestamp;pressure;altitude;pressure_sealevel;temperature;humidity
49827;BME280;35715;51.570;6.036;2023-04-28T00:01:16;101240.53;;;10.79;56.45
49827;BME280;35715;51.570;6.036;2023-04-28T00:03:41;101225.47;;;10.73;56.58
49827;BME280;35715;51.570;6.036;2023-04-28T00:06:07;101228.16;;;10.75;56.98
49827;BME280;35715;51.570;6.036;2023-04-28T00:08:45;101221.56;;;10.78;56.48
49827;BME280;35715;51.570;6.036;2023-04-28T00:11:10;101219.09;;;10.80;56.45
49827;BME280;35715;51.570;6.036;2023-04-28T00:13:36;101220.44;;;10.75;57.89
49827;BME280;35715;51.570;6.036;2023-04-28T00:16:01;101215.97;;;10.72;58.02
49827;BME280;35715;51.570;6.036;2023-04-28T00:18:38;101208.09;;;10.82;56.55
49827;BME280;35715;51.570;6.036;2023-04-28T00:21:03;101209.88;;;10.83;57.73
49827;BME280;35715;51.570;6.036;2023-04-28T00:23:28;101206.84;;;10.77;58.83
49827;BME280;35715;51.570;6.036;2023-04-28T00:25:54;101197.69;;;10.69;58.10
49827;BME280;35715;51.570;6.036;2023-04-28T00:28:36;101200.81;;;10.65;59.75
49827;BME280;35715;51.570;6.036;2023-04-28T00:31:01;101198.00;;;10.62;61.00
49827;BME280;35715;51.570;6.036;2023-04-28T00:33:26;101199.59;;;10.60;60.38
49827;BME280;35715;51.570;6.036;2023-04-28T00:35:57;101198.44;;;10.68;59.84
49827;BME280;35715;51.570;6.036;2023-04-28T00:38:23;101199.78;;;10.75;59.93
49827;BME280;35715;51.570;6.036;2023-04-28T00:40:49;101186.09;;;10.64;62.45
49827;BME280;35715;51.570;6.036;2023-04-28T00:43:14;101188.94;;;10.55;61.37
49827;BME280;35715;51.570;6.036;2023-04-28T00:45:40;101183.06;;;10.58;60.99
49827;BME280;35715;51.570;6.036;2023-04-28T00:48:05;101191.16;;;10.62;61.50
49827;BME280;35715;51.570;6.036;2023-04-28T00:50:31;101180.38;;;10.56;61.54
49827;BME280;35715;51.570;6.036;2023-04-28T00:52:57;101180.16;;;10.65;61.04
49827;BME280;35715;51.570;6.036;2023-04-28T00:55:23;101181.81;;;10.76;63.11
49827;BME280;35715;51.570;6.036;2023-04-28T01:00:36;101167.47;;;10.68;63.02
49827;BME280;35715;51.570;6.036;2023-04-28T01:03:02;101168.28;;;10.55;64.07
49827;BME280;35715;51.570;6.036;2023-04-28T01:05:27;101170.63;;;10.52;63.55
49827;BME280;35715;51.570;6.036;2023-04-28T01:07:54;101171.75;;;10.44;64.79
49827;BME280;35715;51.570;6.036;2023-04-28T01:10:19;101173.56;;;10.45;66.18
49827;BME280;35715;51.570;6.036;2023-04-28T01:12:45;101175.22;;;10.44;65.71
49827;BME280;35715;51.570;6.036;2023-04-28T01:15:12;101169.44;;;10.25;68.30
49827;BME280;35715;51.570;6.036;2023-04-28T01:17:39;101175.84;;;10.18;67.28
49827;BME280;35715;51.570;6.036;2023-04-28T01:20:04;101182.00;;;10.08;69.54
49827;BME280;35715;51.570;6.036;2023-04-28T01:22:30;101172.47;;;10.07;69.17
49827;BME280;35715;51.570;6.036;2023-04-28T01:24:55;101171.47;;;10.05;68.00
49827;BME280;35715;51.570;6.036;2023-04-28T01:27:22;101164.81;;;9.97;69.76
49827;BME280;35715;51.570;6.036;2023-04-28T01:32:15;101153.16;;;9.90;69.92
49827;BME280;35715;51.570;6.036;2023-04-28T01:34:40;101152.81;;;9.86;70.95
49827;BME280;35715;51.570;6.036;2023-04-28T01:37:06;101137.25;;;9.84;72.22
49827;BME280;35715;51.570;6.036;2023-04-28T01:45:06;101128.94;;;9.76;73.44
49827;BME280;35715;51.570;6.036;2023-04-28T01:47:31;101118.84;;;9.68;74.77
49827;BME280;35715;51.570;6.036;2023-04-28T01:49:59;101122.28;;;9.68;73.89
49827;BME280;35715;51.570;6.036;2023-04-28T01:52:24;101124.44;;;9.74;73.95
49827;BME280;35715;51.570;6.036;2023-04-28T01:54:51;101118.63;;;9.76;73.89
49827;BME280;35715;51.570;6.036;2023-04-28T01:57:17;101126.25;;;9.75;75.89
49827;BME280;35715;51.570;6.036;2023-04-28T01:59:47;101118.94;;;9.69;74.19
49827;BME280;35715;51.570;6.036;2023-04-28T02:02:12;101120.91;;;9.50;77.41
49827;BME280;35715;51.570;6.036;2023-04-28T02:04:38;101128.28;;;9.45;78.80
49827;BME280;35715;51.570;6.036;2023-04-28T02:07:05;101120.91;;;9.50;76.48
49827;BME280;35715;51.570;6.036;2023-04-28T02:09:34;101127.88;;;9.51;77.33
49827;BME280;35715;51.570;6.036;2023-04-28T02:12:00;101113.59;;;9.44;79.52
49827;BME280;35715;51.570;6.036;2023-04-28T02:14:26;101114.81;;;9.37;80.95
49827;BME280;35715;51.570;6.036;2023-04-28T02:16:51;101110.63;;;9.28;82.09
49827;BME280;35715;51.570;6.036;2023-04-28T02:19:20;101103.19;;;9.20;84.03
49827;BME280;35715;51.570;6.036;2023-04-28T02:21:45;101109.91;;;9.18;82.98
49827;BME280;35715;51.570;6.036;2023-04-28T02:24:10;101101.06;;;9.15;84.05
49827;BME280;35715;51.570;6.036;2023-04-28T02:26:35;101091.59;;;9.26;81.68
49827;BME280;35715;51.570;6.036;2023-04-28T02:29:01;101089.13;;;9.27;82.15
49827;BME280;35715;51.570;6.036;2023-04-28T02:31:28;101098.78;;;9.30;81.62
49827;BME280;35715;51.570;6.036;2023-04-28T02:33:53;101105.00;;;9.21;84.64
49827;BME280;35715;51.570;6.036;2023-04-28T02:36:18;101093.34;;;9.15;85.27
49827;BME280;35715;51.570;6.036;2023-04-28T02:38:44;101094.88;;;9.13;87.59
49827;BME280;35715;51.570;6.036;2023-04-28T02:41:09;101089.50;;;9.10;88.20
49827;BME280;35715;51.570;6.036;2023-04-28T02:43:34;101089.63;;;9.11;88.08
49827;BME280;35715;51.570;6.036;2023-04-28T02:46:01;101090.66;;;9.13;88.03
49827;BME280;35715;51.570;6.036;2023-04-28T02:48:27;101086.97;;;9.21;86.37
49827;BME280;35715;51.570;6.036;2023-04-28T02:50:52;101081.59;;;9.18;87.96
49827;BME280;35715;51.570;6.036;2023-04-28T02:53:17;101075.63;;;9.08;89.40
49827;BME280;35715;51.570;6.036;2023-04-28T02:55:43;101074.75;;;9.07;90.41
49827;BME280;35715;51.570;6.036;2023-04-28T02:58:14;101062.75;;;9.08;90.49
49827;BME280;35715;51.570;6.036;2023-04-28T03:00:40;101060.72;;;9.03;90.86
49827;BME280;35715;51.570;6.036;2023-04-28T03:03:05;101053.81;;;9.02;90.73
49827;BME280;35715;51.570;6.036;2023-04-28T03:05:30;101051.63;;;8.97;92.28
49827;BME280;35715;51.570;6.036;2023-04-28T03:08:01;101040.19;;;8.93;92.52
49827;BME280;35715;51.570;6.036;2023-04-28T03:10:26;101038.88;;;8.98;93.50
49827;BME280;35715;51.570;6.036;2023-04-28T03:12:51;101029.91;;;8.93;94.07
49827;BME280;35715;51.570;6.036;2023-04-28T03:15:16;101016.16;;;8.93;95.22
49827;BME280;35715;51.570;6.036;2023-04-28T03:17:41;101008.44;;;8.93;96.29
49827;BME280;35715;51.570;6.036;2023-04-28T03:20:07;100991.31;;;8.93;96.58
49827;BME280;35715;51.570;6.036;2023-04-28T03:22:33;100990.28;;;8.91;97.10
49827;BME280;35715;51.570;6.036;2023-04-28T03:24:58;100983.59;;;8.93;97.30
49827;BME280;35715;51.570;6.036;2023-04-28T03:27:23;100984.63;;;8.95;96.94
49827;BME280;35715;51.570;6.036;2023-04-28T03:29:56;100994.50;;;9.01;96.82
49827;BME280;35715;51.570;6.036;2023-04-28T03:32:21;101006.66;;;9.03;96.53
49827;BME280;35715;51.570;6.036;2023-04-28T03:34:46;101011.22;;;9.18;95.76
49827;BME280;35715;51.570;6.036;2023-04-28T03:37:11;101015.94;;;9.23;96.00
49827;BME280;35715;51.570;6.036;2023-04-28T03:42:22;101013.34;;;9.35;95.17
49827;BME280;35715;51.570;6.036;2023-04-28T03:44:47;101016.16;;;9.38;95.48
49827;BME280;35715;51.570;6.036;2023-04-28T03:47:12;101017.75;;;9.36;96.37
49827;BME280;35715;51.570;6.036;2023-04-28T03:52:07;101000.28;;;9.44;96.22
49827;BME280;35715;51.570;6.036;2023-04-28T03:54:32;101001.16;;;9.45;97.66
49827;BME280;35715;51.570;6.036;2023-04-28T03:56:57;100999.72;;;9.48;96.59
49827;BME280;35715;51.570;6.036;2023-04-28T03:59:25;100998.81;;;9.48;97.29
49827;BME280;35715;51.570;6.036;2023-04-28T04:01:50;100994.25;;;9.44;98.60
49827;BME280;35715;51.570;6.036;2023-04-28T04:04:16;100989.09;;;9.44;99.80
49827;BME280;35715;51.570;6.036;2023-04-28T04:06:41;100977.88;;;9.43;100.00
49827;BME280;35715;51.570;6.036;2023-04-28T04:09:08;100983.13;;;9.45;100.00
49827;BME280;35715;51.570;6.036;2023-04-28T04:11:34;100979.56;;;9.43;100.00
49827;BME280;35715;51.570;6.036;2023-04-28T04:13:59;100976.53;;;9.36;100.00
49827;BME280;35715;51.570;6.036;2023-04-28T04:16:24;100977.31;;;9.35;100.00
49827;BME280;35715;51.570;6.036;2023-04-28T04:18:52;100987.06;;;9.39;100.00
49827;BME280;35715;51.570;6.036;2023-04-28T04:21:17;100985.06;;;9.47;100.00
49827;BME280;35715;51.570;6.036;2023-04-28T04:23:42;100993.34;;;9.55;100.00
49827;BME280;35715;51.570;6.036;2023-04-28T04:26:07;100977.56;;;9.62;100.00
49827;BME280;35715;51.570;6.036;2023-04-28T04:28:35;100971.53;;;9.62;100.00
49827;BME280;35715;51.570;6.036;2023-04-28T04:31:00;100968.50;;;9.55;100.00
49827;BME280;35715;51.570;6.036;2023-04-28T04:33:26;100966.72;;;9.54;100.00
49827;BME280;35715;51.570;6.036;2023-04-28T04:35:52;100965.25;;;9.58;100.00
49827;BME280;35715;51.570;6.036;2023-04-28T04:38:20;100969.63;;;9.59;100.00
49827;BME280;35715;51.570;6.036;2023-04-28T04:40:45;100971.41;;;9.60;100.00
49827;BME280;35715;51.570;6.036;2023-04-28T04:43:10;100962.78;;;9.59;100.00
49827;BME280;35715;51.570;6.036;2023-04-28T04:45:35;100963.09;;;9.64;100.00
49827;BME280;35715;51.570;6.036;2023-04-28T04:48:03;100951.03;;;9.63;100.00
49827;BME280;35715;51.570;6.036;2023-04-28T04:50:28;100955.16;;;9.73;100.00
49827;BME280;35715;51.570;6.036;2023-04-28T04:52:53;100956.03;;;9.73;100.00
49827;BME280;35715;51.570;6.036;2023-04-28T04:55:20;100955.94;;;9.72;100.00
49827;BME280;35715;51.570;6.036;2023-04-28T04:57:51;100962.78;;;9.71;100.00
49827;BME280;35715;51.570;6.036;2023-04-28T05:00:16;100958.63;;;9.73;100.00
49827;BME280;35715;51.570;6.036;2023-04-28T05:02:42;100966.03;;;9.81;100.00
49827;BME280;35715;51.570;6.036;2023-04-28T05:05:08;100962.13;;;9.86;100.00
49827;BME280;35715;51.570;6.036;2023-04-28T05:07:33;100967.81;;;9.93;100.00
49827;BME280;35715;51.570;6.036;2023-04-28T05:09:59;100969.38;;;9.91;100.00
49827;BME280;35715;51.570;6.036;2023-04-28T05:12:24;100966.03;;;9.92;100.00
49827;BME280;35715;51.570;6.036;2023-04-28T05:14:50;100963.56;;;9.94;100.00
49827;BME280;35715;51.570;6.036;2023-04-28T05:17:15;100950.66;;;9.94;100.00
49827;BME280;35715;51.570;6.036;2023-04-28T05:22:14;100955.03;;;9.95;100.00
49827;BME280;35715;51.570;6.036;2023-04-28T05:24:39;100951.09;;;10.00;100.00
49827;BME280;35715;51.570;6.036;2023-04-28T05:27:05;100944.16;;;9.99;100.00
49827;BME280;35715;51.570;6.036;2023-04-28T05:32:06;100949.88;;;10.07;100.00
49827;BME280;35715;51.570;6.036;2023-04-28T05:34:31;100944.72;;;10.07;100.00
49827;BME280;35715;51.570;6.036;2023-04-28T05:36:56;100952.06;;;10.14;100.00
49827;BME280;35715;51.570;6.036;2023-04-28T05:39:21;100944.56;;;10.17;100.00
49827;BME280;35715;51.570;6.036;2023-04-28T05:41:50;100941.53;;;10.23;100.00
49827;BME280;35715;51.570;6.036;2023-04-28T05:46:45;100935.13;;;10.29;100.00
49827;BME280;35715;51.570;6.036;2023-04-28T05:49:11;100930.19;;;10.33;100.00
49827;BME280;35715;51.570;6.036;2023-04-28T05:51:36;100934.13;;;10.39;100.00
49827;BME280;35715;51.570;6.036;2023-04-28T05:54:02;100933.75;;;10.46;100.00
49827;BME280;35715;51.570;6.036;2023-04-28T05:56:27;100930.94;;;10.55;100.00
49827;BME280;35715;51.570;6.036;2023-04-28T05:58:56;100920.59;;;10.55;100.00
49827;BME280;35715;51.570;6.036;2023-04-28T06:01:23;100914.28;;;10.63;100.00
49827;BME280;35715;51.570;6.036;2023-04-28T06:03:48;100909.31;;;10.67;100.00
49827;BME280;35715;51.570;6.036;2023-04-28T06:06:13;100914.47;;;10.67;100.00
49827;BME280;35715;51.570;6.036;2023-04-28T06:08:47;100921.66;;;10.71;100.00
49827;BME280;35715;51.570;6.036;2023-04-28T06:11:12;100917.28;;;10.70;100.00
49827;BME280;35715;51.570;6.036;2023-04-28T06:13:37;100923.53;;;10.73;100.00
49827;BME280;35715;51.570;6.036;2023-04-28T06:16:02;100933.69;;;10.83;100.00
49827;BME280;35715;51.570;6.036;2023-04-28T06:18:30;100932.34;;;10.89;100.00
49827;BME280;35715;51.570;6.036;2023-04-28T06:20:58;100931.56;;;11.03;98.26
49827;BME280;35715;51.570;6.036;2023-04-28T06:23:24;100927.94;;;11.13;97.40
49827;BME280;35715;51.570;6.036;2023-04-28T06:25:49;100921.09;;;11.27;95.31
49827;BME280;35715;51.570;6.036;2023-04-28T06:28:14;100925.25;;;11.38;95.37
49827;BME280;35715;51.570;6.036;2023-04-28T06:30:40;100926.88;;;11.49;94.08
49827;BME280;35715;51.570;6.036;2023-04-28T06:33:05;100924.38;;;11.51;95.08
49827;BME280;35715;51.570;6.036;2023-04-28T06:35:30;100920.00;;;11.63;92.76
49827;BME280;35715;51.570;6.036;2023-04-28T06:38:07;100917.31;;;11.62;93.03
49827;BME280;35715;51.570;6.036;2023-04-28T06:40:32;100926.34;;;11.68;92.93
49827;BME280;35715;51.570;6.036;2023-04-28T06:42:57;100921.28;;;11.83;92.02
49827;BME280;35715;51.570;6.036;2023-04-28T06:45:23;100925.75;;;11.86;92.17
49827;BME280;35715;51.570;6.036;2023-04-28T06:50:19;100919.19;;;11.91;91.78
49827;BME280;35715;51.570;6.036;2023-04-28T06:52:44;100917.50;;;11.92;92.22
49827;BME280;35715;51.570;6.036;2023-04-28T06:55:12;100915.34;;;11.98;91.89
49827;BME280;35715;51.570;6.036;2023-04-28T06:57:38;100911.44;;;12.04;91.50
49827;BME280;35715;51.570;6.036;2023-04-28T07:00:03;100913.59;;;12.12;92.42
49827;BME280;35715;51.570;6.036;2023-04-28T07:02:28;100908.94;;;12.06;93.78
49827;BME280;35715;51.570;6.036;2023-04-28T07:04:54;100918.38;;;12.19;92.42
49827;BME280;35715;51.570;6.036;2023-04-28T07:07:19;100918.13;;;12.29;91.75
49827;BME280;35715;51.570;6.036;2023-04-28T07:09:49;100916.16;;;12.25;93.54
49827;BME280;35715;51.570;6.036;2023-04-28T07:12:14;100909.84;;;12.35;93.23
49827;BME280;35715;51.570;6.036;2023-04-28T07:14:39;100914.97;;;12.48;92.57
49827;BME280;35715;51.570;6.036;2023-04-28T07:17:04;100924.09;;;12.56;92.36
49827;BME280;35715;51.570;6.036;2023-04-28T07:19:31;100910.53;;;12.60;92.35
49827;BME280;35715;51.570;6.036;2023-04-28T07:21:56;100909.66;;;12.60;93.41
49827;BME280;35715;51.570;6.036;2023-04-28T07:24:21;100918.06;;;12.71;92.87
49827;BME280;35715;51.570;6.036;2023-04-28T07:26:47;100913.63;;;12.83;91.53
49827;BME280;35715;51.570;6.036;2023-04-28T07:29:13;100913.63;;;12.83;91.91
49827;BME280;35715;51.570;6.036;2023-04-28T07:31:40;100911.47;;;12.76;93.25
49827;BME280;35715;51.570;6.036;2023-04-28T07:34:05;100911.81;;;12.82;91.64
49827;BME280;35715;51.570;6.036;2023-04-28T07:36:31;100913.00;;;12.87;90.36
49827;BME280;35715;51.570;6.036;2023-04-28T07:39:04;100913.63;;;12.83;90.48
49827;BME280;35715;51.570;6.036;2023-04-28T07:41:29;100909.22;;;12.82;90.67
49827;BME280;35715;51.570;6.036;2023-04-28T07:43:54;100918.81;;;12.83;90.36
49827;BME280;35715;51.570;6.036;2023-04-28T07:46:19;100904.06;;;12.82;90.74
49827;BME280;35715;51.570;6.036;2023-04-28T07:48:46;100909.50;;;12.87;89.84
49827;BME280;35715;51.570;6.036;2023-04-28T07:51:11;100910.75;;;12.78;92.22
49827;BME280;35715;51.570;6.036;2023-04-28T07:53:36;100901.75;;;12.87;91.33
49827;BME280;35715;51.570;6.036;2023-04-28T07:56:01;100896.28;;;12.82;91.99
49827;BME280;35715;51.570;6.036;2023-04-28T07:58:28;100890.50;;;12.86;90.88
49827;BME280;35715;51.570;6.036;2023-04-28T08:00:53;100891.94;;;12.96;90.74
49827;BME280;35715;51.570;6.036;2023-04-28T08:03:18;100884.31;;;13.14;89.16
49827;BME280;35715;51.570;6.036;2023-04-28T08:05:44;100885.03;;;13.41;88.10
49827;BME280;35715;51.570;6.036;2023-04-28T08:08:12;100886.44;;;13.97;86.98
49827;BME280;35715;51.570;6.036;2023-04-28T08:10:37;100887.28;;;14.13;86.04
49827;BME280;35715;51.570;6.036;2023-04-28T08:13:06;100880.84;;;14.23;85.62
49827;BME280;35715;51.570;6.036;2023-04-28T08:15:31;100898.06;;;14.20;83.83
49827;BME280;35715;51.570;6.036;2023-04-28T08:17:58;100893.34;;;14.13;83.62
49827;BME280;35715;51.570;6.036;2023-04-28T08:20:23;100895.38;;;14.19;84.47
49827;BME280;35715;51.570;6.036;2023-04-28T08:22:48;100899.81;;;14.22;84.33
49827;BME280;35715;51.570;6.036;2023-04-28T08:25:13;100900.09;;;14.26;83.67
49827;BME280;35715;51.570;6.036;2023-04-28T08:27:39;100898.78;;;14.18;83.80
49827;BME280;35715;51.570;6.036;2023-04-28T08:30:07;100907.28;;;14.15;83.02
49827;BME280;35715;51.570;6.036;2023-04-28T08:32:33;100911.66;;;14.16;83.31
49827;BME280;35715;51.570;6.036;2023-04-28T08:34:59;100902.41;;;14.22;83.49
49827;BME280;35715;51.570;6.036;2023-04-28T08:37:28;100910.97;;;14.19;84.17
49827;BME280;35715;51.570;6.036;2023-04-28T08:42:33;100902.50;;;14.07;84.82
49827;BME280;35715;51.570;6.036;2023-04-28T08:44:58;100903.47;;;14.09;86.00
49827;BME280;35715;51.570;6.036;2023-04-28T08:47:33;100898.69;;;14.16;85.02
49827;BME280;35715;51.570;6.036;2023-04-28T08:50:08;100901.22;;;14.15;86.32
49827;BME280;35715;51.570;6.036;2023-04-28T08:52:34;100906.47;;;14.16;85.24
49827;BME280;35715;51.570;6.036;2023-04-28T08:55:00;100902.84;;;14.13;86.30
49827;BME280;35715;51.570;6.036;2023-04-28T08:57:27;100899.25;;;14.11;87.83
49827;BME280;35715;51.570;6.036;2023-04-28T08:59:58;100897.72;;;14.14;88.80
49827;BME280;35715;51.570;6.036;2023-04-28T09:02:23;100897.16;;;14.20;88.06
49827;BME280;35715;51.570;6.036;2023-04-28T09:04:49;100905.28;;;14.26;88.14
49827;BME280;35715;51.570;6.036;2023-04-28T09:07:14;100913.41;;;14.32;88.51
49827;BME280;35715;51.570;6.036;2023-04-28T09:09:44;100905.53;;;14.31;88.31
49827;BME280;35715;51.570;6.036;2023-04-28T09:12:09;100904.16;;;14.37;89.32
49827;BME280;35715;51.570;6.036;2023-04-28T09:14:35;100904.16;;;14.37;88.63
49827;BME280;35715;51.570;6.036;2023-04-28T09:17:02;100899.03;;;14.39;90.97
49827;BME280;35715;51.570;6.036;2023-04-28T09:22:12;100891.09;;;14.52;90.90
49827;BME280;35715;51.570;6.036;2023-04-28T09:24:37;100891.97;;;14.53;91.46
49827;BME280;35715;51.570;6.036;2023-04-28T09:27:08;100892.97;;;14.55;92.12
49827;BME280;35715;51.570;6.036;2023-04-28T09:29:38;100886.47;;;14.63;91.12
49827;BME280;35715;51.570;6.036;2023-04-28T09:34:41;100894.81;;;14.58;92.05
49827;BME280;35715;51.570;6.036;2023-04-28T09:37:13;100891.31;;;14.57;90.47
49827;BME280;35715;51.570;6.036;2023-04-28T09:39:39;100893.03;;;14.57;90.48
49827;BME280;35715;51.570;6.036;2023-04-28T09:42:04;100893.84;;;14.55;91.11
49827;BME280;35715;51.570;6.036;2023-04-28T09:44:30;100883.25;;;14.67;90.66
49827;BME280;35715;51.570;6.036;2023-04-28T09:46:56;100882.91;;;14.78;91.22
49827;BME280;35715;51.570;6.036;2023-04-28T09:49:23;100894.97;;;14.77;90.68
49827;BME280;35715;51.570;6.036;2023-04-28T09:51:48;100895.56;;;14.55;95.37
49827;BME280;35715;51.570;6.036;2023-04-28T09:54:14;100891.09;;;14.52;94.43
49827;BME280;35715;51.570;6.036;2023-04-28T09:56:40;100888.41;;;14.51;95.38
49827;BME280;35715;51.570;6.036;2023-04-28T09:59:21;100891.97;;;14.53;94.72
49827;BME280;35715;51.570;6.036;2023-04-28T10:01:46;100891.25;;;14.55;94.27
49827;BME280;35715;51.570;6.036;2023-04-28T10:04:13;100878.50;;;14.60;94.56
49827;BME280;35715;51.570;6.036;2023-04-28T10:06:38;100880.41;;;14.63;95.79
49827;BME280;35715;51.570;6.036;2023-04-28T10:11:34;100886.94;;;14.56;97.39
49827;BME280;35715;51.570;6.036;2023-04-28T10:13:59;100882.00;;;14.61;95.94
49827;BME280;35715;51.570;6.036;2023-04-28T10:16:25;100884.94;;;14.67;96.99
49827;BME280;35715;51.570;6.036;2023-04-28T10:18:55;100888.75;;;14.73;96.63
49827;BME280;35715;51.570;6.036;2023-04-28T10:21:20;100884.66;;;14.79;97.13
49827;BME280;35715;51.570;6.036;2023-04-28T10:27:10;100891.47;;;14.93;96.73
49827;BME280;35715;51.570;6.036;2023-04-28T10:29:10;100887.25;;;14.95;97.34
49827;BME280;35715;51.570;6.036;2023-04-28T10:31:35;100885.44;;;14.94;99.12
49827;BME280;35715;51.570;6.036;2023-04-28T10:34:20;100883.06;;;14.99;98.95
49827;BME280;35715;51.570;6.036;2023-04-28T10:36:46;100890.91;;;15.17;98.52
49827;BME280;35715;51.570;6.036;2023-04-28T10:39:26;100884.31;;;15.23;99.42
49827;BME280;35715;51.570;6.036;2023-04-28T10:41:52;100893.75;;;15.39;100.00
49827;BME280;35715;51.570;6.036;2023-04-28T10:44:40;100884.25;;;15.40;99.23
49827;BME280;35715;51.570;6.036;2023-04-28T10:47:06;100886.84;;;15.40;100.00
49827;BME280;35715;51.570;6.036;2023-04-28T11:00:25;100888.63;;;15.59;99.71
49827;BME280;35715;51.570;6.036;2023-04-28T11:02:51;100885.94;;;15.75;99.03
49827;BME280;35715;51.570;6.036;2023-04-28T11:05:17;100879.78;;;15.91;98.93
49827;BME280;35715;51.570;6.036;2023-04-28T11:10:12;100881.16;;;16.03;98.47
49827;BME280;35715;51.570;6.036;2023-04-28T11:12:55;100876.47;;;15.95;98.27
49827;BME280;35715;51.570;6.036;2023-04-28T11:15:22;100874.50;;;15.90;98.65
49827;BME280;35715;51.570;6.036;2023-04-28T11:20:16;100880.97;;;15.80;97.55
49827;BME280;35715;51.570;6.036;2023-04-28T11:22:45;100883.00;;;15.86;97.90
49827;BME280;35715;51.570;6.036;2023-04-28T11:25:15;100879.50;;;15.85;98.14
49827;BME280;35715;51.570;6.036;2023-04-28T11:27:41;100884.22;;;15.94;97.50
49827;BME280;35715;51.570;6.036;2023-04-28T11:30:19;100884.38;;;15.97;96.78
49827;BME280;35715;51.570;6.036;2023-04-28T11:32:48;100883.69;;;16.01;95.86
49827;BME280;35715;51.570;6.036;2023-04-28T11:35:13;100888.28;;;16.07;95.60
49827;BME280;35715;51.570;6.036;2023-04-28T11:37:38;100879.81;;;16.11;95.81
49827;BME280;35715;51.570;6.036;2023-04-28T11:40:10;100877.75;;;16.23;95.06
49827;BME280;35715;51.570;6.036;2023-04-28T11:42:45;100877.50;;;16.37;94.16
49827;BME280;35715;51.570;6.036;2023-04-28T11:45:10;100880.03;;;16.35;93.21
49827;BME280;35715;51.570;6.036;2023-04-28T11:47:36;100865.50;;;16.40;92.29
49827;BME280;35715;51.570;6.036;2023-04-28T11:50:02;100864.88;;;16.46;92.11
49827;BME280;35715;51.570;6.036;2023-04-28T11:52:27;100869.50;;;16.53;92.00
49827;BME280;35715;51.570;6.036;2023-04-28T11:54:56;100865.47;;;16.60;91.54
49827;BME280;35715;51.570;6.036;2023-04-28T11:57:23;100867.66;;;16.70;90.96
49827;BME280;35715;51.570;6.036;2023-04-28T11:59:52;100862.00;;;16.80;90.55
49827;BME280;35715;51.570;6.036;2023-04-28T12:02:24;100858.78;;;16.86;90.31
49827;BME280;35715;51.570;6.036;2023-04-28T12:04:51;100856.97;;;16.85;88.92
49827;BME280;35715;51.570;6.036;2023-04-28T12:07:17;100863.72;;;16.80;88.65
49827;BME280;35715;51.570;6.036;2023-04-28T12:12:28;100855.91;;;16.80;87.99
49827;BME280;35715;51.570;6.036;2023-04-28T12:14:54;100857.75;;;16.82;87.23
49827;BME280;35715;51.570;6.036;2023-04-28T12:17:24;100857.75;;;16.82;87.23
49827;BME280;35715;51.570;6.036;2023-04-28T12:19:58;100853.31;;;16.80;87.30
49827;BME280;35715;51.570;6.036;2023-04-28T12:22:24;100862.00;;;16.80;87.60
49827;BME280;35715;51.570;6.036;2023-04-28T12:27:27;100857.06;;;16.65;86.88
49827;BME280;35715;51.570;6.036;2023-04-28T12:32:37;100855.22;;;16.43;88.48
49827;BME280;35715;51.570;6.036;2023-04-28T12:35:03;100863.63;;;16.38;88.96
49827;BME280;35715;51.570;6.036;2023-04-28T12:37:30;100865.22;;;16.34;89.42
49827;BME280;35715;51.570;6.036;2023-04-28T12:39:57;100868.63;;;16.33;89.42
49827;BME280;35715;51.570;6.036;2023-04-28T12:42:22;100867.56;;;16.28;89.88
49827;BME280;35715;51.570;6.036;2023-04-28T12:44:48;100864.94;;;16.28;90.33
49827;BME280;35715;51.570;6.036;2023-04-28T12:47:14;100861.75;;;16.34;90.76
49827;BME280;35715;51.570;6.036;2023-04-28T12:49:43;100852.38;;;16.58;90.41
49827;BME280;35715;51.570;6.036;2023-04-28T12:52:08;100854.50;;;16.87;89.77
49827;BME280;35715;51.570;6.036;2023-04-28T12:54:33;100858.44;;;16.98;88.68
49827;BME280;35715;51.570;6.036;2023-04-28T12:56:59;100861.72;;;16.94;88.14
49827;BME280;35715;51.570;6.036;2023-04-28T12:59:27;100868.13;;;16.81;88.40
49827;BME280;35715;51.570;6.036;2023-04-28T13:01:53;100865.88;;;16.69;88.37
49827;BME280;35715;51.570;6.036;2023-04-28T13:04:20;100875.91;;;16.60;89.53
49827;BME280;35715;51.570;6.036;2023-04-28T13:06:46;100873.97;;;16.56;89.65
49827;BME280;35715;51.570;6.036;2023-04-28T13:09:13;100874.47;;;16.47;91.71
49827;BME280;35715;51.570;6.036;2023-04-28T13:11:41;100874.31;;;16.44;92.99
49827;BME280;35715;51.570;6.036;2023-04-28T13:14:07;100875.50;;;16.50;94.50
49827;BME280;35715;51.570;6.036;2023-04-28T13:16:33;100872.47;;;16.82;95.16
49827;BME280;35715;51.570;6.036;2023-04-28T13:19:02;100864.34;;;17.15;94.26
49827;BME280;35715;51.570;6.036;2023-04-28T13:21:28;100861.91;;;17.41;93.18
49827;BME280;35715;51.570;6.036;2023-04-28T13:23:53;100857.97;;;17.50;91.93
49827;BME280;35715;51.570;6.036;2023-04-28T13:26:19;100861.31;;;17.48;90.65
49827;BME280;35715;51.570;6.036;2023-04-28T13:29:00;100865.47;;;17.43;91.16
49827;BME280;35715;51.570;6.036;2023-04-28T13:31:26;100866.13;;;17.37;89.85
49827;BME280;35715;51.570;6.036;2023-04-28T13:33:51;100864.53;;;17.19;90.45
49827;BME280;35715;51.570;6.036;2023-04-28T13:36:17;100869.81;;;17.00;91.05
49827;BME280;35715;51.570;6.036;2023-04-28T13:41:13;100885.44;;;16.80;92.60
49827;BME280;35715;51.570;6.036;2023-04-28T13:43:38;100873.38;;;16.61;92.66
49827;BME280;35715;51.570;6.036;2023-04-28T13:46:04;100874.72;;;16.53;92.77
49827;BME280;35715;51.570;6.036;2023-04-28T13:48:35;100883.38;;;16.52;93.24
49827;BME280;35715;51.570;6.036;2023-04-28T13:51:04;100889.47;;;16.33;91.75
49827;BME280;35715;51.570;6.036;2023-04-28T13:53:29;100903.84;;;16.05;91.90